sensor_id;sensor_type;location;lat;lon;timestamp;pressure;altitude;pressure_sealevel;temperature;humidity
48390;BME280;34643;47.964;7.982;2023-02-26T00:04:23;96032.97;;;17.54;57.29
48390;BME280;34643;47.964;7.982;2023-02-26T00:09:23;96030.91;;;17.57;56.93
48390;BME280;34643;47.964;7.982;2023-02-26T00:14:24;96034.22;;;17.59;56.81
48390;BME280;34643;47.964;7.982;2023-02-26T00:19:24;96043.00;;;17.58;56.83
48390;BME280;34643;47.964;7.982;2023-02-26T00:24:25;96046.84;;;17.54;56.92
48390;BME280;34643;47.964;7.982;2023-02-26T00:29:25;96040.66;;;17.55;56.69
48390;BME280;34643;47.964;7.982;2023-02-26T00:34:26;96048.63;;;17.54;56.65
48390;BME280;34643;47.964;7.982;2023-02-26T00:44:45;96042.56;;;17.53;56.32
48390;BME280;34643;47.964;7.982;2023-02-26T00:54:46;96028.81;;;17.51;56.34
48390;BME280;34643;47.964;7.982;2023-02-26T00:59:48;96036.66;;;17.51;56.34
48390;BME280;34643;47.964;7.982;2023-02-26T01:04:48;96051.63;;;17.49;56.27
48390;BME280;34643;47.964;7.982;2023-02-26T01:09:50;96049.00;;;17.49;56.11
48390;BME280;34643;47.964;7.982;2023-02-26T01:14:50;96043.09;;;17.47;56.33
48390;BME280;34643;47.964;7.982;2023-02-26T01:19:52;96057.94;;;17.46;56.26
48390;BME280;34643;47.964;7.982;2023-02-26T01:25:03;96050.25;;;17.45;56.29
48390;BME280;34643;47.964;7.982;2023-02-26T01:30:05;96045.84;;;17.45;56.31
48390;BME280;34643;47.964;7.982;2023-02-26T01:46:10;96050.50;;;17.42;56.45
48390;BME280;34643;47.964;7.982;2023-02-26T01:50:58;96042.94;;;17.39;56.62
48390;BME280;34643;47.964;7.982;2023-02-26T01:56:03;96036.75;;;17.40;56.44
48390;BME280;34643;47.964;7.982;2023-02-26T02:01:07;96031.56;;;17.40;56.39
48390;BME280;34643;47.964;7.982;2023-02-26T02:06:08;96041.16;;;17.39;56.50
48390;BME280;34643;47.964;7.982;2023-02-26T02:11:11;96038.41;;;17.41;56.23
48390;BME280;34643;47.964;7.982;2023-02-26T02:16:17;96032.38;;;17.40;56.20
48390;BME280;34643;47.964;7.982;2023-02-26T02:32:12;96037.84;;;17.37;55.76
48390;BME280;34643;47.964;7.982;2023-02-26T02:42:42;96045.81;;;17.36;55.71
48390;BME280;34643;47.964;7.982;2023-02-26T02:47:40;96049.38;;;17.35;55.85
48390;BME280;34643;47.964;7.982;2023-02-26T02:53:02;96058.16;;;17.34;55.72
48390;BME280;34643;47.964;7.982;2023-02-26T02:58:05;96050.47;;;17.32;55.59
48390;BME280;34643;47.964;7.982;2023-02-26T03:08:27;96063.66;;;17.31;55.31
48390;BME280;34643;47.964;7.982;2023-02-26T03:13:29;96061.03;;;17.31;55.27
48390;BME280;34643;47.964;7.982;2023-02-26T03:18:40;96068.00;;;17.30;55.06
48390;BME280;34643;47.964;7.982;2023-02-26T03:24:33;96068.88;;;17.31;55.20
48390;BME280;34643;47.964;7.982;2023-02-26T03:29:09;96069.69;;;17.31;54.98
48390;BME280;34643;47.964;7.982;2023-02-26T03:39:17;96079.00;;;17.34;54.83
48390;BME280;34643;47.964;7.982;2023-02-26T03:44:22;96089.44;;;17.34;54.95
48390;BME280;34643;47.964;7.982;2023-02-26T03:49:25;96085.31;;;17.31;54.87
48390;BME280;34643;47.964;7.982;2023-02-26T03:54:33;96091.38;;;17.32;54.73
48390;BME280;34643;47.964;7.982;2023-02-26T03:59:57;96091.50;;;17.30;55.04
48390;BME280;34643;47.964;7.982;2023-02-26T04:05:15;96101.09;;;17.29;54.64
48390;BME280;34643;47.964;7.982;2023-02-26T04:10:21;96105.50;;;17.29;54.68
48390;BME280;34643;47.964;7.982;2023-02-26T04:15:24;96114.41;;;17.26;54.80
48390;BME280;34643;47.964;7.982;2023-02-26T04:20:24;96109.19;;;17.26;54.53
48390;BME280;34643;47.964;7.982;2023-02-26T04:25:25;96111.78;;;17.26;54.76
48390;BME280;34643;47.964;7.982;2023-02-26T04:30:26;96116.31;;;17.24;54.46
48390;BME280;34643;47.964;7.982;2023-02-26T04:35:26;96114.69;;;17.23;54.51
48390;BME280;34643;47.964;7.982;2023-02-26T04:40:30;96116.56;;;17.21;54.33
48390;BME280;34643;47.964;7.982;2023-02-26T04:45:30;96123.69;;;17.19;54.49
48390;BME280;34643;47.964;7.982;2023-02-26T04:50:31;96123.00;;;17.17;54.25
48390;BME280;34643;47.964;7.982;2023-02-26T04:55:32;96118.75;;;17.16;54.41
48390;BME280;34643;47.964;7.982;2023-02-26T05:00:33;96111.75;;;17.17;54.14
48390;BME280;34643;47.964;7.982;2023-02-26T05:05:33;96114.94;;;17.20;54.34
48390;BME280;34643;47.964;7.982;2023-02-26T05:10:34;96112.06;;;17.23;54.20
48390;BME280;34643;47.964;7.982;2023-02-26T05:15:35;96116.56;;;17.21;54.29
48390;BME280;34643;47.964;7.982;2023-02-26T05:20:35;96118.22;;;17.22;54.01
48390;BME280;34643;47.964;7.982;2023-02-26T05:25:35;96128.66;;;17.22;54.16
48390;BME280;34643;47.964;7.982;2023-02-26T05:30:36;96134.69;;;17.23;53.98
48390;BME280;34643;47.964;7.982;2023-02-26T05:35:39;96128.78;;;17.21;53.90
48390;BME280;34643;47.964;7.982;2023-02-26T05:40:40;96134.13;;;17.19;54.02
48390;BME280;34643;47.964;7.982;2023-02-26T05:45:40;96144.44;;;17.21;53.93
48390;BME280;34643;47.964;7.982;2023-02-26T05:50:40;96157.59;;;17.19;54.01
48390;BME280;34643;47.964;7.982;2023-02-26T05:55:41;96162.13;;;17.17;54.04
48390;BME280;34643;47.964;7.982;2023-02-26T06:00:41;96160.22;;;17.19;53.91
48390;BME280;34643;47.964;7.982;2023-02-26T06:05:41;96172.06;;;17.23;53.97
48390;BME280;34643;47.964;7.982;2023-02-26T06:10:42;96172.56;;;17.17;54.25
48390;BME280;34643;47.964;7.982;2023-02-26T06:15:42;96181.59;;;17.13;54.21
48390;BME280;34643;47.964;7.982;2023-02-26T06:20:42;96192.16;;;17.12;53.75
48390;BME280;34643;47.964;7.982;2023-02-26T06:25:43;96198.06;;;17.14;53.86
48390;BME280;34643;47.964;7.982;2023-02-26T06:30:44;96200.53;;;17.15;53.76
48390;BME280;34643;47.964;7.982;2023-02-26T06:35:45;96210.72;;;17.18;53.41
48390;BME280;34643;47.964;7.982;2023-02-26T06:40:46;96206.66;;;17.25;53.46
48390;BME280;34643;47.964;7.982;2023-02-26T06:45:47;96215.28;;;17.26;53.49
48390;BME280;34643;47.964;7.982;2023-02-26T06:50:47;96218.72;;;17.26;53.07
48390;BME280;34643;47.964;7.982;2023-02-26T06:55:49;96223.38;;;17.23;53.33
48390;BME280;34643;47.964;7.982;2023-02-26T07:00:49;96226.81;;;17.23;52.86
48390;BME280;34643;47.964;7.982;2023-02-26T07:05:50;96235.72;;;17.21;53.13
48390;BME280;34643;47.964;7.982;2023-02-26T07:10:50;96241.91;;;17.20;53.04
48390;BME280;34643;47.964;7.982;2023-02-26T07:15:51;96243.66;;;17.19;53.04
48390;BME280;34643;47.964;7.982;2023-02-26T07:20:51;96248.19;;;17.17;52.84
48390;BME280;34643;47.964;7.982;2023-02-26T07:25:51;96250.91;;;17.16;52.97
48390;BME280;34643;47.964;7.982;2023-02-26T07:30:55;96270.25;;;17.13;52.95
48390;BME280;34643;47.964;7.982;2023-02-26T07:35:56;96263.63;;;17.09;53.10
48390;BME280;34643;47.964;7.982;2023-02-26T07:40:56;96265.13;;;12.79;41.02
48390;BME280;34643;47.964;7.982;2023-02-26T07:45:56;96271.25;;;11.64;38.13
48390;BME280;34643;47.964;7.982;2023-02-26T07:50:56;96269.84;;;11.14;36.76
48390;BME280;34643;47.964;7.982;2023-02-26T07:55:57;96266.69;;;11.39;36.21
48390;BME280;34643;47.964;7.982;2023-02-26T08:00:57;96268.44;;;11.08;35.16
48390;BME280;34643;47.964;7.982;2023-02-26T08:05:57;96266.63;;;10.94;35.47
48390;BME280;34643;47.964;7.982;2023-02-26T08:10:59;96268.09;;;10.84;35.50
48390;BME280;34643;47.964;7.982;2023-02-26T08:16:00;96270.53;;;10.39;34.80
48390;BME280;34643;47.964;7.982;2023-02-26T08:21:00;96266.72;;;12.25;35.86
48390;BME280;34643;47.964;7.982;2023-02-26T08:26:01;96251.94;;;13.75;38.01
48390;BME280;34643;47.964;7.982;2023-02-26T08:31:02;96252.47;;;14.30;39.44
48390;BME280;34643;47.964;7.982;2023-02-26T08:36:02;96241.63;;;14.61;40.64
48390;BME280;34643;47.964;7.982;2023-02-26T08:41:02;96251.75;;;14.77;41.15
48390;BME280;34643;47.964;7.982;2023-02-26T08:46:03;96269.66;;;14.93;42.16
48390;BME280;34643;47.964;7.982;2023-02-26T08:51:03;96274.16;;;15.02;42.68
48390;BME280;34643;47.964;7.982;2023-02-26T08:56:04;96273.75;;;15.09;43.63
48390;BME280;34643;47.964;7.982;2023-02-26T09:01:04;96276.84;;;15.14;44.26
48390;BME280;34643;47.964;7.982;2023-02-26T09:06:25;96280.19;;;15.27;44.46
48390;BME280;34643;47.964;7.982;2023-02-26T09:11:31;96284.69;;;15.36;44.68
48390;BME280;34643;47.964;7.982;2023-02-26T09:16:31;96287.69;;;15.43;45.18
48390;BME280;34643;47.964;7.982;2023-02-26T09:21:35;96281.44;;;15.46;45.41
48390;BME280;34643;47.964;7.982;2023-02-26T09:26:36;96287.56;;;15.45;46.03
48390;BME280;34643;47.964;7.982;2023-02-26T09:31:37;96293.84;;;15.53;46.19
48390;BME280;34643;47.964;7.982;2023-02-26T09:36:40;96296.13;;;15.58;46.39
48390;BME280;34643;47.964;7.982;2023-02-26T09:41:45;96293.88;;;15.65;46.76
48390;BME280;34643;47.964;7.982;2023-02-26T09:51:53;96303.00;;;15.70;47.01
48390;BME280;34643;47.964;7.982;2023-02-26T09:56:55;96310.16;;;15.80;47.41
48390;BME280;34643;47.964;7.982;2023-02-26T10:12:22;96322.50;;;16.11;47.88
48390;BME280;34643;47.964;7.982;2023-02-26T10:22:29;96315.28;;;16.26;48.26
48390;BME280;34643;47.964;7.982;2023-02-26T10:40:18;96317.50;;;16.53;49.03
48390;BME280;34643;47.964;7.982;2023-02-26T10:50:26;96323.31;;;16.68;49.51
48390;BME280;34643;47.964;7.982;2023-02-26T11:00:27;96332.19;;;16.66;50.05
48390;BME280;34643;47.964;7.982;2023-02-26T11:05:28;96346.19;;;16.65;50.36
48390;BME280;34643;47.964;7.982;2023-02-26T11:10:38;96344.16;;;16.68;50.35
48390;BME280;34643;47.964;7.982;2023-02-26T11:15:38;96345.56;;;16.72;50.57
48390;BME280;34643;47.964;7.982;2023-02-26T11:20:41;96342.63;;;16.77;50.65
48390;BME280;34643;47.964;7.982;2023-02-26T11:25:42;96352.06;;;16.78;50.75
48390;BME280;34643;47.964;7.982;2023-02-26T11:30:43;96345.22;;;16.77;50.66
48390;BME280;34643;47.964;7.982;2023-02-26T11:35:45;96344.94;;;16.80;51.02
48390;BME280;34643;47.964;7.982;2023-02-26T11:40:51;96331.72;;;16.83;51.08
48390;BME280;34643;47.964;7.982;2023-02-26T11:45:54;96340.00;;;16.88;51.07
48390;BME280;34643;47.964;7.982;2023-02-26T11:50:56;96329.34;;;16.91;51.22
48390;BME280;34643;47.964;7.982;2023-02-26T11:56:09;96324.31;;;17.00;51.30
48390;BME280;34643;47.964;7.982;2023-02-26T12:01:11;96329.19;;;17.04;51.56
48390;BME280;34643;47.964;7.982;2023-02-26T12:06:14;96336.88;;;17.06;51.63
48390;BME280;34643;47.964;7.982;2023-02-26T12:16:18;96323.03;;;16.94;51.44
48390;BME280;34643;47.964;7.982;2023-02-26T12:26:34;96325.78;;;16.92;51.45
48390;BME280;34643;47.964;7.982;2023-02-26T12:41:56;96325.19;;;16.89;51.00
48390;BME280;34643;47.964;7.982;2023-02-26T12:52:42;96317.22;;;17.02;50.62
48390;BME280;34643;47.964;7.982;2023-02-26T12:57:53;96321.03;;;16.98;50.55
48390;BME280;34643;47.964;7.982;2023-02-26T13:13:19;96329.19;;;17.04;50.86
48390;BME280;34643;47.964;7.982;2023-02-26T13:18:27;96332.84;;;17.02;50.91
48390;BME280;34643;47.964;7.982;2023-02-26T13:23:35;96332.84;;;17.02;50.72
48390;BME280;34643;47.964;7.982;2023-02-26T13:28:41;96330.25;;;17.02;51.07
48390;BME280;34643;47.964;7.982;2023-02-26T13:33:42;96322.31;;;17.03;50.94
48390;BME280;34643;47.964;7.982;2023-02-26T13:44:11;96319.69;;;17.03;50.69
48390;BME280;34643;47.964;7.982;2023-02-26T13:49:20;96332.03;;;17.01;50.91
48390;BME280;34643;47.964;7.982;2023-02-26T13:54:32;96339.03;;;17.01;50.73
48390;BME280;34643;47.964;7.982;2023-02-26T13:59:36;96338.44;;;16.97;50.80
48390;BME280;34643;47.964;7.982;2023-02-26T14:04:53;96347.69;;;17.01;50.86
48390;BME280;34643;47.964;7.982;2023-02-26T14:10:11;96339.84;;;17.01;50.86
48390;BME280;34643;47.964;7.982;2023-02-26T14:15:18;96350.03;;;17.04;50.68
48390;BME280;34643;47.964;7.982;2023-02-26T14:20:20;96352.66;;;17.04;50.71
48390;BME280;34643;47.964;7.982;2023-02-26T14:36:08;96351.09;;;17.02;50.79
48390;BME280;34643;47.964;7.982;2023-02-26T14:41:27;96351.09;;;17.02;50.60
48390;BME280;34643;47.964;7.982;2023-02-26T14:46:29;96347.78;;;17.00;50.48
48390;BME280;34643;47.964;7.982;2023-02-26T15:06:51;96366.53;;;16.94;50.47
48390;BME280;34643;47.964;7.982;2023-02-26T15:17:10;96403.03;;;16.94;50.36
48390;BME280;34643;47.964;7.982;2023-02-26T15:22:30;96388.91;;;16.96;50.34
48390;BME280;34643;47.964;7.982;2023-02-26T15:27:35;96394.84;;;16.98;50.29
48390;BME280;34643;47.964;7.982;2023-02-26T15:32:36;96385.97;;;17.01;50.25
48390;BME280;34643;47.964;7.982;2023-02-26T15:37:36;96406.72;;;17.02;50.37
48390;BME280;34643;47.964;7.982;2023-02-26T15:42:38;96415.34;;;17.03;50.48
48390;BME280;34643;47.964;7.982;2023-02-26T15:47:40;96411.81;;;17.04;50.41
48390;BME280;34643;47.964;7.982;2023-02-26T15:52:40;96412.84;;;17.01;50.47
48390;BME280;34643;47.964;7.982;2023-02-26T15:57:41;96428.38;;;17.03;50.52
48390;BME280;34643;47.964;7.982;2023-02-26T16:02:41;96442.34;;;17.02;50.50
48390;BME280;34643;47.964;7.982;2023-02-26T16:07:42;96446.88;;;17.00;50.43
48390;BME280;34643;47.964;7.982;2023-02-26T16:12:43;96442.84;;;16.96;50.50
48390;BME280;34643;47.964;7.982;2023-02-26T16:17:48;96457.78;;;16.94;50.41
48390;BME280;34643;47.964;7.982;2023-02-26T16:22:54;96440.47;;;16.92;50.03
48390;BME280;34643;47.964;7.982;2023-02-26T16:27:57;96438.84;;;16.91;49.81
48390;BME280;34643;47.964;7.982;2023-02-26T16:32:59;96449.84;;;16.95;50.05
48390;BME280;34643;47.964;7.982;2023-02-26T16:38:09;96450.19;;;17.02;50.02
48390;BME280;34643;47.964;7.982;2023-02-26T16:48:25;96466.28;;;17.07;50.16
48390;BME280;34643;47.964;7.982;2023-02-26T16:53:46;96496.88;;;17.05;50.27
48390;BME280;34643;47.964;7.982;2023-02-26T16:58:55;96508.97;;;17.06;50.38
48390;BME280;34643;47.964;7.982;2023-02-26T17:03:59;96515.84;;;17.07;50.51
48390;BME280;34643;47.964;7.982;2023-02-26T17:09:00;96511.00;;;17.02;50.56
48390;BME280;34643;47.964;7.982;2023-02-26T17:19:04;96526.06;;;16.99;50.47
48390;BME280;34643;47.964;7.982;2023-02-26T17:24:04;96515.84;;;16.96;50.47
48390;BME280;34643;47.964;7.982;2023-02-26T17:29:05;96528.41;;;16.90;50.66
48390;BME280;34643;47.964;7.982;2023-02-26T17:34:05;96533.72;;;16.89;50.51
48390;BME280;34643;47.964;7.982;2023-02-26T17:39:05;96532.19;;;16.86;50.72
48390;BME280;34643;47.964;7.982;2023-02-26T17:44:06;96539.16;;;16.86;50.38
48390;BME280;34643;47.964;7.982;2023-02-26T17:49:06;96532.09;;;16.88;50.57
48390;BME280;34643;47.964;7.982;2023-02-26T17:54:06;96549.47;;;16.87;50.45
48390;BME280;34643;47.964;7.982;2023-02-26T17:59:07;96538.94;;;16.89;50.50
48390;BME280;34643;47.964;7.982;2023-02-26T18:04:08;96541.66;;;16.87;50.52
48390;BME280;34643;47.964;7.982;2023-02-26T18:09:09;96541.66;;;16.87;50.55
48390;BME280;34643;47.964;7.982;2023-02-26T18:14:10;96533.28;;;16.95;50.48
48390;BME280;34643;47.964;7.982;2023-02-26T18:19:11;96540.63;;;17.13;50.92
48390;BME280;34643;47.964;7.982;2023-02-26T18:24:12;96551.91;;;17.13;53.01
48390;BME280;34643;47.964;7.982;2023-02-26T18:29:13;96558.03;;;17.01;52.78
48390;BME280;34643;47.964;7.982;2023-02-26T18:34:13;96571.56;;;17.06;52.99
48390;BME280;34643;47.964;7.982;2023-02-26T18:39:15;96567.06;;;17.08;53.75
48390;BME280;34643;47.964;7.982;2023-02-26T18:44:15;96572.28;;;17.08;54.02
48390;BME280;34643;47.964;7.982;2023-02-26T18:49:17;96582.59;;;17.09;54.22
48390;BME280;34643;47.964;7.982;2023-02-26T18:54:18;96595.75;;;17.08;54.27
48390;BME280;34643;47.964;7.982;2023-02-26T18:59:18;96588.63;;;16.99;54.24
48390;BME280;34643;47.964;7.982;2023-02-26T19:04:18;96599.00;;;16.87;54.21
48390;BME280;34643;47.964;7.982;2023-02-26T19:09:18;96600.09;;;16.85;54.21
48390;BME280;34643;47.964;7.982;2023-02-26T19:14:19;96610.81;;;16.80;54.57
48390;BME280;34643;47.964;7.982;2023-02-26T19:19:19;96596.13;;;16.79;54.63
48390;BME280;34643;47.964;7.982;2023-02-26T19:24:20;96609.28;;;16.78;54.56
48390;BME280;34643;47.964;7.982;2023-02-26T19:29:20;96604.41;;;16.73;54.71
48390;BME280;34643;47.964;7.982;2023-02-26T19:34:20;96602.66;;;16.73;54.97
48390;BME280;34643;47.964;7.982;2023-02-26T19:39:21;96604.75;;;16.68;55.29
48390;BME280;34643;47.964;7.982;2023-02-26T19:44:22;96622.16;;;16.68;55.37
48390;BME280;34643;47.964;7.982;2023-02-26T19:49:23;96609.47;;;16.63;55.37
48390;BME280;34643;47.964;7.982;2023-02-26T19:54:24;96613.13;;;16.61;55.39
48390;BME280;34643;47.964;7.982;2023-02-26T19:59:24;96614.09;;;16.60;55.44
48390;BME280;34643;47.964;7.982;2023-02-26T20:04:24;96621.31;;;16.56;55.34
48390;BME280;34643;47.964;7.982;2023-02-26T20:09:25;96628.41;;;16.54;55.36
48390;BME280;34643;47.964;7.982;2023-02-26T20:14:26;96629.44;;;16.51;55.32
48390;BME280;34643;47.964;7.982;2023-02-26T20:19:27;96630.72;;;16.46;55.46
48390;BME280;34643;47.964;7.982;2023-02-26T20:24:27;96630.72;;;16.46;55.31
48390;BME280;34643;47.964;7.982;2023-02-26T20:29:28;96626.59;;;16.43;55.61
48390;BME280;34643;47.964;7.982;2023-02-26T20:34:29;96624.09;;;16.42;55.53
48390;BME280;34643;47.964;7.982;2023-02-26T20:39:29;96624.19;;;16.40;55.75
48390;BME280;34643;47.964;7.982;2023-02-26T20:44:30;96624.31;;;16.39;56.05
48390;BME280;34643;47.964;7.982;2023-02-26T20:49:30;96634.50;;;16.42;56.25
48390;BME280;34643;47.964;7.982;2023-02-26T20:54:31;96635.72;;;16.49;55.30
48390;BME280;34643;47.964;7.982;2023-02-26T20:59:31;96635.75;;;16.60;55.43
48390;BME280;34643;47.964;7.982;2023-02-26T21:04:31;96628.22;;;16.68;55.08
48390;BME280;34643;47.964;7.982;2023-02-26T21:09:32;96632.47;;;16.69;55.27
48390;BME280;34643;47.964;7.982;2023-02-26T21:14:32;96623.81;;;16.69;55.10
48390;BME280;34643;47.964;7.982;2023-02-26T21:19:35;96633.19;;;16.71;55.23
48390;BME280;34643;47.964;7.982;2023-02-26T21:24:36;96627.84;;;16.73;55.40
48390;BME280;34643;47.964;7.982;2023-02-26T21:29:36;96636.38;;;16.75;55.73
48390;BME280;34643;47.964;7.982;2023-02-26T21:34:36;96634.91;;;16.84;55.58
48390;BME280;34643;47.964;7.982;2023-02-26T21:39:37;96642.69;;;16.72;55.10
48390;BME280;34643;47.964;7.982;2023-02-26T21:44:38;96634.38;;;16.67;54.48
48390;BME280;34643;47.964;7.982;2023-02-26T21:49:38;96624.75;;;16.68;54.58
48390;BME280;34643;47.964;7.982;2023-02-26T21:54:39;96621.34;;;16.67;54.18
48390;BME280;34643;47.964;7.982;2023-02-26T21:59:40;96617.91;;;16.67;53.82
48390;BME280;34643;47.964;7.982;2023-02-26T22:04:40;96617.09;;;16.66;53.64
48390;BME280;34643;47.964;7.982;2023-02-26T22:09:41;96622.28;;;16.66;53.56
48390;BME280;34643;47.964;7.982;2023-02-26T22:14:43;96612.09;;;16.63;53.53
48390;BME280;34643;47.964;7.982;2023-02-26T22:19:43;96618.22;;;16.62;53.29
48390;BME280;34643;47.964;7.982;2023-02-26T22:24:44;96631.38;;;16.61;53.41
48390;BME280;34643;47.964;7.982;2023-02-26T22:29:45;96621.91;;;16.60;53.01
48390;BME280;34643;47.964;7.982;2023-02-26T22:34:45;96618.59;;;16.58;52.86
48390;BME280;34643;47.964;7.982;2023-02-26T22:39:45;96613.38;;;16.58;52.92
48390;BME280;34643;47.964;7.982;2023-02-26T22:44:46;96604.81;;;16.56;53.01
48390;BME280;34643;47.964;7.982;2023-02-26T22:49:46;96607.56;;;16.54;52.95
48390;BME280;34643;47.964;7.982;2023-02-26T22:54:47;96597.25;;;16.52;53.14
48390;BME280;34643;47.964;7.982;2023-02-26T22:59:48;96594.97;;;16.48;53.01
48390;BME280;34643;47.964;7.982;2023-02-26T23:04:48;96598.41;;;16.48;52.99
48390;BME280;34643;47.964;7.982;2023-02-26T23:09:48;96605.50;;;16.46;53.21
48390;BME280;34643;47.964;7.982;2023-02-26T23:14:49;96601.13;;;16.47;53.03
48390;BME280;34643;47.964;7.982;2023-02-26T23:19:49;96605.59;;;16.45;53.22
48390;BME280;34643;47.964;7.982;2023-02-26T23:24:49;96605.75;;;16.43;53.36
48390;BME280;34643;47.964;7.982;2023-02-26T23:29:50;96599.69;;;16.43;53.35
48390;BME280;34643;47.964;7.982;2023-02-26T23:34:50;96590.22;;;16.42;53.14
48390;BME280;34643;47.964;7.982;2023-02-26T23:39:50;96591.97;;;16.41;53.27
48390;BME280;34643;47.964;7.982;2023-02-26T23:44:51;96585.13;;;16.40;53.28
48390;BME280;34643;47.964;7.982;2023-02-26T23:49:52;96591.97;;;16.41;53.18
48390;BME280;34643;47.964;7.982;2023-02-26T23:54:52;96596.47;;;16.39;53.16
48390;BME280;34643;47.964;7.982;2023-02-26T23:59:53;96587.94;;;16.37;53.23
